• Join FlightAware (Why Join?)
  • Login
  • US Flag 
03:08PM EDT


 

Airport Tracker/Info


-or-


 

Live Flight TrackerFlight Track Log ✈ SKW6345 ✈ 17-Jun-2013 ✈ KSFO - KBZN

Flight Track Log - Related Links

Times and Time Zones

All times are in EDT time to prevent confusion due to time zone crossing. See the SKW6345 flight status page for this flight to view local times or setup timezone preferences in your user account.

Time Position Orientation Groundspeed Altitude Reporting Facility
EDT Latitude Longitude Course Direction KTS MPH feet Rate Location/Type
11:26AM 37.6500 -122.3500 38° Northeast 171 197 1,600  Level Northern Cal TRACON
11:27AM 37.6833 -122.3000 50° Northeast 196 226 3,300 1,800 Climbing Northern Cal TRACON
11:28AM 37.7167 -122.2333 58° Northeast 231 266 5,300 1,980 Climbing Northern Cal TRACON
11:29AM 37.6935 -122.2899 38° Northeast  Level FlightAware Approximate
11:30AM 37.7986 -122.1848 38° Northeast  Level FlightAware Approximate
11:30AM 37.8175 -122.1478 34° Northeast 277 319 8,600  Level Oakland Center
11:31AM 37.9038 -122.0796 38° Northeast  Level FlightAware Approximate
11:31AM 37.8850 -122.0844 37° Northeast 298 343 10,900  Level Oakland Center
11:32AM 37.9547 -122.0164 38° Northeast 313 360 12,500 1,680 Climbing Oakland Center
11:33AM 38.0472 -121.9300 36° Northeast 340 391 14,400 1,800 Climbing Oakland Center
11:34AM 38.1267 -121.8547 37° Northeast 354 407 16,200 1,620 Climbing Oakland Center
11:35AM 38.2028 -121.7742 40° Northeast 358 412 17,700 1,260 Climbing Oakland Center
11:36AM 38.2769 -121.6858 43° Northeast 366 421 18,900 1,140 Climbing Oakland Center
11:37AM 38.3542 -121.5942 43° Northeast 380 437 20,100 1,200 Climbing Oakland Center
11:38AM 38.4378 -121.4978 42° Northeast 394 453 21,400 1,140 Climbing Oakland Center
11:39AM 38.5175 -121.4025 43° Northeast 404 465 22,500 1,080 Climbing Oakland Center
11:40AM 38.6000 -121.3028 43° Northeast 410 472 23,600 1,020 Climbing Oakland Center
11:41AM 38.6950 -121.1928 42° Northeast 414 476 24,700 1,020 Climbing Oakland Center
11:42AM 38.7819 -121.0897 43° Northeast 421 484 25,800 1,020 Climbing Oakland Center
11:43AM 38.8664 -120.9867 44° Northeast 420 483 26,800 840 Climbing Oakland Center
11:44AM 38.9511 -120.8833 43° Northeast 419 482 27,600 780 Climbing Oakland Center
11:45AM 39.0386 -120.7786 43° Northeast 427 491 28,400 600 Climbing Oakland Center
11:46AM 39.1250 -120.6722 44° Northeast 428 493 28,900 540 Climbing Oakland Center
11:47AM 39.2314 -120.5419 43° Northeast 438 504 29,500 480 Climbing Oakland Center
11:48AM 39.3206 -120.4331 43° Northeast 439 505 30,000 480 Climbing Oakland Center
11:49AM 39.4117 -120.3225 43° Northeast 448 516 30,500 480 Climbing Oakland Center
11:50AM 39.5006 -120.2117 44° Northeast 444 511 31,000 240 Climbing Oakland Center
11:51AM 39.5931 -120.0978 43° Northeast 456 525 31,000  Level Oakland Center
11:52AM 39.6900 -119.9797 43° Northeast 472 543 31,000  Level Oakland Center
11:53AM 39.7842 -119.8600 44° Northeast 472 543 31,000 120 Level Oakland Center
11:54AM 39.8825 -119.7394 43° Northeast 479 551 31,300 360 Climbing Oakland Center
11:55AM 39.9786 -119.6172 44° Northeast 480 552 31,800 660 Climbing Oakland Center
11:56AM 40.0908 -119.4744 44° Northeast 471 542 32,700 540 Climbing Oakland Center
11:57AM 40.1836 -119.3569 44° Northeast 465 535 33,000 120 Climbing Oakland Center
11:58AM 40.2764 -119.2369 45° Northeast 466 536 33,000  Level Oakland Center
11:59AM 40.3694 -119.1181 44° Northeast 465 535 33,000  Level Oakland Center
12:00PM 40.4650 -118.9956 44° Northeast 475 547 33,000  Level Oakland Center
12:01PM 40.5569 -118.8758 45° Northeast 469 540 33,000  Level Oakland Center
12:02PM 40.6511 -118.7547 44° Northeast 471 542 33,000  Level Salt Lake Center
12:04PM 40.7542 -118.6200 45° Northeast 468 539 33,000  Level Salt Lake Center
12:05PM 40.8417 -118.5056 45° Northeast 463 533 33,000  Level Salt Lake Center
12:06PM 40.9450 -118.3717 44° Northeast 464 534 33,000  Level Salt Lake Center
12:07PM 41.0311 -118.2575 45° Northeast 460 529 33,000  Level Salt Lake Center
12:08PM 41.1169 -118.1444 45° Northeast 456 525 33,000  Level Salt Lake Center
12:09PM 41.2161 -118.0108 45° Northeast 455 524 33,000  Level Salt Lake Center
12:10PM 41.3014 -117.8983 45° Northeast 452 520 33,000  Level Salt Lake Center
12:11PM 41.4000 -117.7667 45° Northeast 449 517 33,000  Level Salt Lake Center
12:12PM 41.4839 -117.6517 46° Northeast 449 517 33,000  Level Salt Lake Center
12:13PM 41.5822 -117.5200 45° Northeast 448 516 33,000  Level Salt Lake Center
12:14PM 41.6661 -117.4058 45° Northeast 448 516 33,000  Level Salt Lake Center
12:15PM 41.7639 -117.2664 47° Northeast 459 528 33,000  Level Salt Lake Center
12:16PM 41.8475 -117.1539 45° Northeast 445 512 33,000  Level Salt Lake Center
12:17PM 41.9450 -117.0197 46° Northeast 448 516 33,000  Level Salt Lake Center
12:18PM 42.0275 -116.9047 46° Northeast 449 517 33,000  Level Salt Lake Center
12:19PM 42.1106 -116.7897 46° Northeast 448 516 33,000  Level Salt Lake Center
12:20PM 42.2103 -116.6494 46° Northeast 447 514 33,000  Level Salt Lake Center
12:21PM 42.2933 -116.5331 46° Northeast 449 517 33,000  Level Salt Lake Center
12:22PM 42.3900 -116.3983 46° Northeast 446 513 33,000  Level Salt Lake Center
12:23PM 42.4731 -116.2817 46° Northeast 448 516 33,000  Level Salt Lake Center
12:24PM 42.5692 -116.1447 46° Northeast 449 517 33,000  Level Salt Lake Center
12:25PM 42.6522 -116.0272 46° Northeast 450 518 33,000  Level Salt Lake Center
12:26PM 42.7483 -115.8897 46° Northeast 450 518 33,000  Level Salt Lake Center
12:27PM 42.8300 -115.7703 47° Northeast 449 517 33,000  Level Salt Lake Center
12:28PM 42.9128 -115.6514 46° Northeast 450 518 33,000  Level Salt Lake Center
12:29PM 43.0083 -115.5133 47° Northeast 448 516 33,000  Level Salt Lake Center
12:30PM 43.0900 -115.3947 47° Northeast 449 517 33,000  Level Salt Lake Center
12:31PM 43.1844 -115.2564 47° Northeast 447 514 33,000  Level Salt Lake Center
12:32PM 43.2656 -115.1369 47° Northeast 448 516 33,000  Level Salt Lake Center
12:34PM 43.3606 -114.9986 47° Northeast 445 512 33,000  Level Salt Lake Center
12:35PM 43.4414 -114.8781 47° Northeast 448 516 33,000  Level Salt Lake Center
12:36PM 43.5358 -114.7375 47° Northeast 449 517 33,000  Level Salt Lake Center
12:37PM 43.6158 -114.6175 47° Northeast 445 512 33,000  Level Salt Lake Center
12:38PM 43.7100 -114.4767 47° Northeast 447 514 33,000  Level Salt Lake Center
12:39PM 43.7900 -114.3550 48° Northeast 447 514 33,000  Level Salt Lake Center
12:40PM 43.8842 -114.2142 47° Northeast 446 513 33,000  Level Salt Lake Center
12:41PM 43.9636 -114.0903 48° Northeast 449 517 33,000  Level Salt Lake Center
12:42PM 44.0564 -113.9481 48° Northeast 447 514 33,000  Level Salt Lake Center
12:43PM 44.1356 -113.8242 48° Northeast 444 511 33,000  Level Salt Lake Center
12:44PM 44.2275 -113.6783 49° Northeast 449 517 33,000  Level Salt Lake Center
12:45PM 44.3081 -113.5553 48° Northeast 448 516 33,000  Level Salt Lake Center
12:46PM 44.3878 -113.4314 48° Northeast 448 516 33,000  Level Salt Lake Center
12:47PM 44.4792 -113.2872 48° Northeast 444 511 33,000  Level Salt Lake Center
12:48PM 44.5583 -113.1614 49° Northeast 448 516 33,000  Level Salt Lake Center
12:49PM 44.6519 -113.0161 48° Northeast 449 517 33,000  Level Salt Lake Center
12:50PM 44.7311 -112.8903 48° Northeast 448 516 33,000 -360 Level Salt Lake Center
12:51PM 44.8211 -112.7425 49° Northeast 448 516 32,300 -1,500 Descending Salt Lake Center
12:52PM 44.9039 -112.6108 48° Northeast 463 533 29,900 -2,520 Descending Salt Lake Center
12:53PM 44.9972 -112.4606 49° Northeast 457 526 27,100 -2,520 Descending Salt Lake Center
12:54PM 45.0714 -112.3392 49° Northeast 437 503 24,700 -2,460 Descending Salt Lake Center
12:55PM 45.1547 -112.2033 49° Northeast 415 478 22,100 -2,100 Descending Salt Lake Center
12:56PM 45.2222 -112.0931 49° Northeast 395 455 20,400 -1,680 Descending Salt Lake Center
12:57PM 45.2869 -111.9872 49° Northeast 367 422 18,700 -1,620 Descending Salt Lake Center
12:58PM 45.3472 -111.8869 49° Northeast 343 395 17,100 -1,620 Descending Salt Lake Center
12:59PM 45.4061 -111.7903 49° Northeast 329 379 15,400 -1,500 Descending Salt Lake Center
01:00PM 45.4611 -111.6981 50° Northeast 313 360 14,000 -1,500 Descending Salt Lake Center
01:01PM 45.5244 -111.5933 49° Northeast 295 339 12,300 -1,020 Descending Salt Lake Center
01:02PM 45.5733 -111.5114 50° Northeast 282 325 12,000 -180 Descending Salt Lake Center
01:03PM 45.6189 -111.4342 50° Northeast 268 308 12,000 -420 Level Salt Lake Center
01:05PM 45.6642 -111.3578 50° Northeast 259 298 11,200 -1,020 Descending Salt Lake Center
01:06PM 45.7219 -111.3200 25° Northeast 250 288 10,000 -1,380 Descending Salt Lake Center
01:07PM 45.7794 -111.3547 337° Northwest 232 267 8,400 -1,560 Descending Salt Lake Center